Alexander, West Virginia
Current Conditions -  °F | °C
As of 2:35 AM on Saturday 01 Nov 2014 (Local Time) from KW22 Reporting Station
Haze Haze  
Wind Chill: 37°   Ceiling: 400
Heat Index: 37°   Visibility: 4mi
Dew Point: 37°   Wind: 0mph
Humidity: 100%   Direction: NA
Pressure: 29.83"   Gusts: NA
Location:  38.8347°N, 80.2578°W
Report Text: KW22 010635Z AUTO 00000KT 4SM BR OVC004 03/03 A2983 RMK AO2
Loading
Personal Weather Stations






























Interactive Weather Map
Tropical Storm Tracking
New forecast layout! Learn more

10-Day Weather Forecast

Advertisements
Track Severe Weather on mobile